• Join FlightAware (Why Join?)
  • Login
  • US Flag 
04:52PM EST


 

Airport Tracker/Info


-or-


 

Live Flight TrackerFlight Track Log ✈ ADR705 ✈ 19-May-2013 ✈ LATI / TIA - LJLJ / LJU

Flight Track Log - Related Links

Times and Time Zones

All times are in EDT time to prevent confusion due to time zone crossing. See the ADR705 flight status page for this flight to view local times or setup timezone preferences in your user account.

Time Position Orientation Groundspeed Altitude Reporting Facility
EDT Latitude Longitude Course Direction KTS MPH feet Rate Location/Type
09:39AM 42.1640 18.9702 324° Northwest  Level Estimated
09:40AM 42.2469 18.8857 323° Northwest  Level Estimated
09:41AM 42.3298 18.8010 323° Northwest  Level Estimated
09:42AM 42.4127 18.7161 323° Northwest  Level Estimated
09:43AM 42.4954 18.6310 323° Northwest  Level Estimated
09:44AM 42.5781 18.5456 323° Northwest  Level Estimated
09:45AM 42.6607 18.4600 323° Northwest  Level Estimated
09:46AM 42.7433 18.3742 323° Northwest  Level Estimated
09:47AM 42.8258 18.2882 323° Northwest  Level Estimated
09:48AM 42.9082 18.2019 323° Northwest  Level Estimated
09:49AM 42.9906 18.1154 322° Northwest  Level Estimated
09:50AM 43.0729 18.0286 322° Northwest  Level Estimated
09:51AM 43.1552 17.9417 322° Northwest  Level Estimated
09:52AM 43.2374 17.8544 322° Northwest  Level Estimated
09:53AM 43.3195 17.7670 322° Northwest  Level Estimated
09:54AM 43.4015 17.6793 322° Northwest  Level Estimated
09:55AM 43.4835 17.5914 322° Northwest  Level Estimated
09:56AM 43.5654 17.5032 322° Northwest  Level Estimated
09:57AM 43.6472 17.4148 322° Northwest  Level Estimated
09:58AM 43.7290 17.3262 322° Northwest  Level Estimated
09:59AM 43.8107 17.2373 322° Northwest  Level Estimated
10:00AM 43.8924 17.1482 322° Northwest  Level Estimated
10:01AM 43.9739 17.0588 322° Northwest  Level Estimated
10:02AM 44.0554 16.9692 322° Northwest  Level Estimated
10:03AM 44.1369 16.8794 322° Northwest  Level Estimated
10:04AM 44.2182 16.7892 322° Northwest  Level Estimated
10:05AM 44.2995 16.6989 322° Northwest  Level Estimated
10:06AM 44.3807 16.6083 321° Northwest  Level Estimated
10:07AM 44.4618 16.5174 321° Northwest  Level Estimated
10:08AM 44.5429 16.4263 321° Northwest  Level Estimated
10:09AM 44.6239 16.3349 321° Northwest  Level Estimated
10:10AM 44.7048 16.2433 321° Northwest  Level Estimated
10:11AM 44.7857 16.1514 321° Northwest  Level Estimated
10:12AM 44.8665 16.0593 321° Northwest  Level Estimated
10:13AM 44.9472 15.9669 321° Northwest  Level Estimated
10:14AM 45.0278 15.8743 321° Northwest  Level Estimated
10:15AM 45.1083 15.7814 321° Northwest  Level Estimated
10:16AM 45.1888 15.6882 321° Northwest  Level Estimated
10:17AM 45.2692 15.5947 321° Northwest  Level Estimated
10:18AM 45.3495 15.5010 321° Northwest  Level Estimated
10:19AM 45.4298 15.4071 321° Northwest  Level Estimated
10:20AM 45.5100 15.3128 321° Northwest  Level Estimated
10:21AM 45.5901 15.2183 320° Northwest  Level Estimated
10:22AM 45.6701 15.1235 320° Northwest  Level Estimated
10:23AM 45.7500 15.0285 320° Northwest  Level Estimated
10:24AM 45.8299 14.9332 320° Northwest  Level Estimated
10:25AM 45.9096 14.8376 320° Northwest  Level Estimated
10:26AM 45.9893 14.7417 320° Northwest  Level Estimated
10:27AM 46.0690 14.6455 320° Northwest  Level Estimated
10:28AM 46.1485 14.5491 320° Northwest  Level Estimated
10:29AM 46.2237 14.4576 320° Northwest  Level Estimated
10:30AM 46.2237 14.4576 170° South  Level Estimated
10:31AM 46.2237 14.4576 170° South  Level Estimated
10:32AM 46.2237 14.4576 170° South  Level Estimated
10:33AM 46.2237 14.4576 170° South  Level Estimated
10:34AM 46.2237 14.4576 170° South  Level Estimated
10:35AM 46.2237 14.4576 170° South  Level Estimated
10:36AM 46.2237 14.4576 170° South  Level Estimated
10:37AM 46.2237 14.4576 170° South  Level Estimated
10:38AM 46.2237 14.4576 170° South  Level Estimated
10:39AM 46.2237 14.4576 170° South  Level Estimated
10:40AM 46.2237 14.4576 170° South  Level Estimated
10:41AM 46.2237 14.4576 170° South  Level Estimated
10:42AM 46.2237 14.4576 170° South  Level Estimated
10:43AM 46.2237 14.4576 170° South  Level Estimated
10:44AM 46.2237 14.4576 170° South  Level Estimated
10:45AM 46.2237 14.4576 170° South  Level Estimated